createdAt,value
2018-09-03T00:01:57.353Z,3.60
2018-09-03T00:04:24.694Z,4.87
2018-09-03T00:06:52.092Z,3.57
2018-09-03T00:09:19.408Z,4.57
2018-09-03T00:11:46.746Z,3.93
2018-09-03T00:14:14.056Z,4.13
2018-09-03T00:16:41.442Z,3.70
2018-09-03T00:19:08.767Z,3.90
2018-09-03T00:21:36.088Z,4.80
2018-09-03T00:24:03.689Z,3.97
2018-09-03T00:26:31.013Z,3.90
2018-09-03T00:28:58.395Z,4.60
2018-09-03T00:31:31.407Z,4.53
2018-09-03T00:34:04.448Z,4.43
2018-09-03T00:36:37.458Z,4.83
2018-09-03T00:39:12.138Z,4.53
2018-09-03T00:41:45.442Z,3.87
2018-09-03T00:44:18.446Z,5.90
2018-09-03T00:46:51.495Z,5.67
2018-09-03T00:49:18.780Z,4.40
2018-09-03T00:51:46.096Z,4.90
2018-09-03T00:54:13.614Z,5.37
2018-09-03T00:56:40.955Z,4.77
2018-09-03T00:59:08.308Z,5.10
2018-09-03T01:01:35.616Z,5.30
2018-09-03T01:04:02.970Z,6.23
2018-09-03T01:06:30.287Z,5.57
2018-09-03T01:08:57.594Z,6.53
2018-09-03T01:11:25.519Z,5.43
2018-09-03T01:13:53.571Z,5.53
2018-09-03T01:16:20.897Z,6.33
2018-09-03T01:18:51.203Z,5.43
2018-09-03T01:21:18.546Z,6.60
2018-09-03T01:23:45.922Z,6.20
2018-09-03T01:26:13.220Z,5.73
2018-09-03T01:28:40.524Z,5.40
2018-09-03T01:31:08.035Z,5.07
2018-09-03T01:33:35.386Z,6.13
2018-09-03T01:36:02.682Z,5.47
2018-09-03T01:38:29.984Z,5.80
2018-09-03T01:40:57.665Z,5.80
2018-09-03T01:43:25.011Z,6.80
2018-09-03T01:45:52.567Z,6.63
2018-09-03T01:48:19.887Z,5.30
2018-09-03T01:50:47.176Z,5.60
2018-09-03T01:53:14.510Z,7.17
2018-09-03T01:55:41.820Z,6.60
2018-09-03T01:58:09.163Z,5.83
2018-09-03T02:00:36.468Z,6.07
2018-09-03T02:03:03.856Z,6.30
2018-09-03T02:05:31.158Z,6.50
2018-09-03T02:07:58.504Z,6.17
2018-09-03T02:10:25.815Z,6.77
2018-09-03T02:12:53.130Z,6.03
2018-09-03T02:17:54.600Z,6.47
2018-09-03T02:20:21.995Z,7.30
2018-09-03T02:22:49.270Z,12.10
2018-09-03T02:25:16.579Z,7.77
2018-09-03T02:27:43.914Z,7.93
2018-09-03T02:30:11.272Z,7.30
2018-09-03T02:32:38.946Z,7.93
2018-09-03T02:35:06.354Z,7.23
2018-09-03T02:37:33.693Z,7.37
2018-09-03T02:40:01.015Z,7.77
2018-09-03T02:42:28.311Z,7.40
2018-09-03T02:44:55.609Z,7.67
2018-09-03T02:47:22.943Z,7.30
2018-09-03T02:49:50.234Z,8.53
2018-09-03T02:52:17.574Z,8.93
2018-09-03T02:54:44.896Z,7.30
2018-09-03T02:57:12.287Z,7.27
2018-09-03T02:59:39.677Z,7.53
2018-09-03T03:02:06.998Z,7.30
2018-09-03T03:04:34.346Z,8.07
2018-09-03T03:07:01.690Z,9.20
2018-09-03T03:09:29.260Z,7.83
2018-09-03T03:11:56.625Z,8.40
2018-09-03T03:14:23.903Z,7.83
2018-09-03T03:16:51.270Z,7.43
2018-09-03T03:19:18.566Z,8.53
2018-09-03T03:21:45.882Z,8.10
2018-09-03T03:24:13.325Z,7.53
2018-09-03T03:26:40.641Z,8.40
2018-09-03T03:29:07.974Z,8.43
2018-09-03T03:31:35.339Z,8.93
2018-09-03T03:34:02.643Z,8.47
2018-09-03T03:36:30.175Z,8.83
2018-09-03T03:38:57.735Z,8.63
2018-09-03T03:41:25.058Z,7.90
2018-09-03T03:43:52.384Z,9.73
2018-09-03T03:46:19.728Z,9.87
2018-09-03T03:48:47.108Z,8.93
2018-09-03T03:51:14.720Z,9.53
2018-09-03T03:53:42.011Z,9.30
2018-09-03T03:56:09.356Z,9.50
2018-09-03T03:58:36.718Z,9.80
2018-09-03T04:01:04.020Z,10.60
2018-09-03T04:03:31.388Z,12.53
2018-09-03T04:05:58.712Z,9.63
2018-09-03T04:08:26.056Z,10.40
2018-09-03T04:10:53.389Z,12.13
2018-09-03T04:13:20.727Z,11.73
2018-09-03T04:15:48.093Z,11.57
2018-09-03T04:18:15.519Z,11.67
2018-09-03T04:20:42.861Z,11.57
2018-09-03T04:23:10.365Z,11.30
2018-09-03T04:25:37.592Z,11.90
2018-09-03T04:28:04.947Z,11.60
2018-09-03T04:30:32.295Z,13.20
2018-09-03T04:32:59.643Z,12.43
2018-09-03T04:35:26.985Z,13.33
2018-09-03T04:37:54.367Z,13.23
2018-09-03T04:40:21.675Z,12.53
2018-09-03T04:42:48.992Z,14.03
2018-09-03T04:45:16.527Z,12.83
2018-09-03T04:47:43.818Z,12.73
2018-09-03T04:50:11.319Z,13.27
2018-09-03T04:52:38.691Z,15.73
2018-09-03T04:55:06.089Z,14.77
2018-09-03T04:57:33.352Z,14.30
2018-09-03T05:00:00.883Z,14.13
2018-09-03T05:02:28.208Z,16.00
2018-09-03T05:04:55.553Z,14.60
2018-09-03T05:07:22.917Z,13.83
2018-09-03T05:09:51.262Z,13.57
2018-09-03T05:12:18.753Z,14.57
2018-09-03T05:14:46.190Z,14.57
2018-09-03T05:17:13.540Z,12.73
2018-09-03T05:19:40.957Z,16.33
2018-09-03T05:22:08.279Z,14.83
2018-09-03T05:24:35.679Z,14.33
2018-09-03T05:27:03.091Z,13.37
2018-09-03T05:29:30.682Z,13.13
2018-09-03T05:31:58.072Z,14.53
2018-09-03T05:34:25.397Z,12.30
2018-09-03T05:36:52.730Z,12.63
2018-09-03T05:39:20.064Z,14.33
2018-09-03T05:41:47.367Z,13.97
2018-09-03T05:44:14.668Z,14.67
2018-09-03T05:46:41.999Z,15.00
2018-09-03T05:49:09.298Z,13.73
2018-09-03T05:51:36.741Z,15.20
2018-09-03T05:54:04.123Z,14.60
2018-09-03T05:56:31.463Z,14.70
2018-09-03T05:58:58.827Z,12.50
2018-09-03T06:01:26.201Z,14.40
2018-09-03T06:03:53.495Z,13.10
2018-09-03T06:06:20.841Z,15.63
2018-09-03T06:08:48.322Z,12.57
2018-09-03T06:11:15.693Z,13.70
2018-09-03T06:13:43.089Z,13.97
2018-09-03T06:16:10.479Z,12.30
2018-09-03T06:18:37.835Z,14.00
2018-09-03T06:21:05.197Z,14.03
2018-09-03T06:23:32.510Z,15.33
2018-09-03T06:25:59.846Z,18.23
2018-09-03T06:28:27.149Z,14.70
2018-09-03T06:30:54.543Z,15.63
2018-09-03T06:33:21.947Z,15.27
2018-09-03T06:35:49.366Z,16.87
2018-09-03T06:38:16.635Z,18.27
2018-09-03T06:40:43.996Z,15.60
2018-09-03T06:43:11.353Z,16.93
2018-09-03T06:45:38.826Z,18.53
2018-09-03T06:48:06.135Z,16.93
2018-09-03T06:50:33.483Z,17.60
2018-09-03T06:53:01.860Z,14.47
2018-09-03T06:55:29.172Z,13.57
2018-09-03T06:57:56.507Z,14.83
2018-09-03T07:00:23.913Z,13.97
2018-09-03T07:02:51.291Z,16.80
2018-09-03T07:05:18.663Z,15.00
2018-09-03T07:07:46.009Z,15.87
2018-09-03T07:10:13.336Z,16.63
2018-09-03T07:12:47.254Z,15.63
2018-09-03T07:15:14.563Z,14.30
2018-09-03T07:17:41.863Z,15.63
2018-09-03T07:20:09.165Z,16.37
2018-09-03T07:22:36.819Z,14.70
2018-09-03T07:25:04.214Z,13.30
2018-09-03T07:27:31.595Z,13.67
2018-09-03T07:29:58.989Z,17.10
2018-09-03T07:32:26.343Z,13.60
2018-09-03T07:34:53.686Z,12.80
2018-09-03T07:37:21.030Z,12.77
2018-09-03T07:39:48.345Z,15.57
2018-09-03T07:42:15.668Z,15.97
2018-09-03T07:44:43.021Z,13.03
2018-09-03T07:47:10.367Z,15.23
2018-09-03T07:49:37.772Z,16.90
2018-09-03T07:52:05.173Z,14.13
2018-09-03T07:54:32.602Z,13.57
2018-09-03T07:56:59.908Z,12.63
2018-09-03T07:59:27.380Z,14.13
2018-09-03T08:01:54.737Z,12.87
2018-09-03T08:04:22.151Z,13.40
2018-09-03T08:06:50.132Z,13.37
2018-09-03T08:09:17.432Z,13.87
2018-09-03T08:11:44.815Z,11.97
2018-09-03T08:14:12.186Z,14.83
2018-09-03T08:16:40.463Z,12.90
2018-09-03T08:19:07.811Z,15.33
2018-09-03T08:21:35.103Z,13.97
2018-09-03T08:24:02.487Z,13.97
2018-09-03T08:26:29.846Z,16.87
2018-09-03T08:28:57.155Z,17.13
2018-09-03T08:31:24.495Z,17.17
2018-09-03T08:33:53.622Z,14.57
2018-09-03T08:36:20.957Z,15.03
2018-09-03T08:38:48.543Z,15.27
2018-09-03T08:41:15.856Z,14.70
2018-09-03T08:43:43.302Z,14.90
2018-09-03T08:46:10.896Z,14.13
2018-09-03T08:48:38.211Z,14.33
2018-09-03T08:51:05.585Z,16.33
2018-09-03T08:53:33.187Z,17.13
2018-09-03T08:56:00.499Z,13.57
2018-09-03T08:58:27.807Z,14.60
2018-09-03T09:00:55.130Z,14.17
2018-09-03T09:03:28.395Z,13.30
2018-09-03T09:05:55.753Z,15.93
2018-09-03T09:08:23.068Z,13.50
2018-09-03T09:10:50.683Z,15.30
2018-09-03T09:13:18.761Z,19.27
2018-09-03T09:15:46.639Z,14.20
2018-09-03T09:18:14.296Z,14.33
2018-09-03T09:20:41.642Z,17.20
2018-09-03T09:23:09.038Z,16.27
2018-09-03T09:25:36.356Z,15.37
2018-09-03T09:28:03.829Z,16.13
2018-09-03T09:30:31.127Z,16.97
2018-09-03T09:32:58.523Z,16.73
2018-09-03T09:35:25.828Z,15.43
2018-09-03T09:37:53.131Z,15.97
2018-09-03T09:40:20.564Z,14.00
2018-09-03T09:42:48.158Z,14.10
2018-09-03T09:45:15.473Z,13.77
2018-09-03T09:47:42.825Z,15.63
2018-09-03T09:50:10.150Z,14.37
2018-09-03T09:52:37.545Z,13.90
2018-09-03T09:55:04.860Z,16.67
2018-09-03T09:57:32.264Z,21.70
2018-09-03T09:59:59.823Z,13.47
2018-09-03T10:02:27.456Z,13.47
2018-09-03T10:04:54.955Z,15.27
2018-09-03T10:07:22.326Z,14.57
2018-09-03T10:09:49.643Z,13.00
2018-09-03T10:12:24.468Z,13.27
2018-09-03T10:14:51.770Z,13.10
2018-09-03T10:17:19.140Z,13.80
2018-09-03T10:19:46.455Z,15.47
2018-09-03T10:22:13.783Z,12.67
2018-09-03T10:24:41.168Z,15.27
2018-09-03T10:27:08.683Z,14.53
2018-09-03T10:29:36.045Z,13.57
2018-09-03T10:32:03.388Z,16.17
2018-09-03T10:34:30.712Z,14.53
2018-09-03T10:36:58.023Z,13.03
2018-09-03T10:39:25.397Z,15.40
2018-09-03T10:41:52.767Z,15.10
2018-09-03T10:44:20.079Z,16.23
2018-09-03T10:46:49.090Z,15.13
2018-09-03T10:49:16.640Z,15.13
2018-09-03T10:51:43.916Z,17.07
2018-09-03T10:54:11.216Z,14.83
2018-09-03T10:56:38.531Z,14.50
2018-09-03T10:59:05.875Z,14.40
2018-09-03T11:01:33.526Z,13.90
2018-09-03T11:04:00.853Z,14.23
2018-09-03T11:06:28.187Z,14.13
2018-09-03T11:08:55.483Z,15.27
2018-09-03T11:11:22.861Z,14.63
2018-09-03T11:13:50.183Z,14.77
2018-09-03T11:16:17.510Z,13.87
2018-09-03T11:18:45.274Z,14.80
2018-09-03T11:21:12.654Z,14.57
2018-09-03T11:23:39.879Z,13.20
2018-09-03T11:26:07.212Z,14.13
2018-09-03T11:28:34.533Z,12.50
2018-09-03T11:31:01.883Z,15.93
2018-09-03T11:33:29.214Z,12.23
2018-09-03T11:35:56.575Z,13.37
2018-09-03T11:38:23.900Z,13.27
2018-09-03T11:40:51.276Z,20.03
2018-09-03T11:43:18.551Z,13.07
2018-09-03T11:45:45.876Z,12.77
2018-09-03T11:48:13.219Z,15.50
2018-09-03T11:50:40.589Z,12.10
2018-09-03T11:53:07.955Z,14.97
2018-09-03T11:55:35.248Z,12.73
2018-09-03T11:58:02.607Z,13.20
2018-09-03T12:00:30.640Z,13.30
2018-09-03T12:02:58.415Z,11.87
2018-09-03T12:05:26.164Z,10.53
2018-09-03T12:07:53.557Z,11.60
2018-09-03T12:10:20.842Z,11.97
2018-09-03T12:12:48.152Z,13.97
2018-09-03T12:15:25.290Z,13.37
2018-09-03T12:17:52.694Z,13.93
2018-09-03T12:20:20.002Z,11.57
2018-09-03T12:22:47.351Z,10.10
2018-09-03T12:25:14.656Z,14.33
2018-09-03T12:27:41.984Z,12.47
2018-09-03T12:30:09.300Z,12.43
2018-09-03T12:32:36.930Z,13.73
2018-09-03T12:35:04.463Z,13.33
2018-09-03T12:37:31.920Z,12.63
2018-09-03T12:39:59.227Z,11.13
2018-09-03T12:42:26.552Z,13.27
2018-09-03T12:44:54.084Z,12.97
2018-09-03T12:47:21.386Z,14.23
2018-09-03T12:49:48.755Z,13.53
2018-09-03T12:52:16.089Z,13.90
2018-09-03T12:54:43.532Z,16.63
2018-09-03T12:57:10.864Z,14.03
2018-09-03T12:59:38.203Z,14.90
2018-09-03T13:02:05.565Z,14.63
2018-09-03T13:04:32.991Z,14.40
2018-09-03T13:07:00.233Z,16.80
2018-09-03T13:09:27.555Z,14.70
2018-09-03T13:11:55.091Z,16.07
2018-09-03T13:14:23.234Z,14.17
2018-09-03T13:16:50.608Z,14.93
2018-09-03T13:19:17.965Z,13.93
2018-09-03T13:21:45.264Z,13.53
2018-09-03T13:24:12.569Z,13.80
2018-09-03T13:26:40.089Z,12.13
2018-09-03T13:29:07.395Z,15.20
2018-09-03T13:31:34.727Z,14.40
2018-09-03T13:34:02.088Z,11.07
2018-09-03T13:36:29.463Z,11.07
2018-09-03T13:38:56.819Z,15.07
2018-09-03T13:41:24.136Z,14.30
2018-09-03T13:43:51.525Z,14.83
2018-09-03T13:46:18.969Z,13.53
2018-09-03T13:48:46.327Z,14.57
2018-09-03T13:51:13.639Z,13.07
2018-09-03T13:53:41.132Z,12.00
2018-09-03T13:56:08.540Z,13.80
2018-09-03T13:58:36.702Z,12.27
2018-09-03T14:01:06.164Z,12.63
2018-09-03T14:03:33.545Z,14.20
2018-09-03T14:06:00.916Z,12.60
2018-09-03T14:08:28.264Z,13.97
2018-09-03T14:10:55.571Z,15.30
2018-09-03T14:13:22.911Z,14.83
2018-09-03T14:15:50.366Z,14.97
2018-09-03T14:18:17.735Z,13.77
2018-09-03T14:20:45.149Z,14.73
2018-09-03T14:23:12.964Z,13.40
2018-09-03T14:25:40.312Z,15.07
2018-09-03T14:28:07.659Z,13.97
2018-09-03T14:30:34.956Z,13.97
2018-09-03T14:33:02.348Z,14.33
2018-09-03T14:35:29.743Z,18.87
2018-09-03T14:37:57.039Z,14.57
2018-09-03T14:40:24.402Z,14.67
2018-09-03T14:42:51.764Z,15.73
2018-09-03T14:45:19.188Z,13.80
2018-09-03T14:47:46.511Z,15.43
2018-09-03T14:50:13.855Z,13.30
2018-09-03T14:52:41.204Z,14.10
2018-09-03T14:55:08.609Z,13.27
2018-09-03T14:57:36.017Z,17.50
2018-09-03T15:00:03.522Z,15.80
2018-09-03T15:02:31.749Z,14.80
2018-09-03T15:04:59.071Z,14.33
2018-09-03T15:07:27.307Z,14.60
2018-09-03T15:09:54.736Z,13.33
2018-09-03T15:12:22.127Z,16.57
2018-09-03T15:14:49.467Z,14.13
2018-09-03T15:17:16.791Z,17.00
2018-09-03T15:19:44.132Z,14.87
2018-09-03T15:22:11.451Z,15.87
2018-09-03T15:24:38.766Z,13.83
2018-09-03T15:27:06.816Z,17.20
2018-09-03T15:29:34.099Z,14.90
2018-09-03T15:32:01.500Z,14.37
2018-09-03T15:34:28.816Z,14.83
2018-09-03T15:36:56.789Z,15.03
2018-09-03T15:39:24.148Z,15.97
2018-09-03T15:41:51.475Z,15.03
2018-09-03T15:44:18.799Z,16.20
2018-09-03T15:46:46.155Z,15.43
2018-09-03T15:49:20.391Z,16.33
2018-09-03T15:51:47.776Z,14.53
2018-09-03T15:54:15.093Z,14.40
2018-09-03T15:56:42.504Z,17.27
2018-09-03T15:59:09.827Z,19.10
2018-09-03T16:01:37.307Z,17.87
2018-09-03T16:04:04.915Z,16.07
2018-09-03T16:06:32.423Z,16.30
2018-09-03T16:08:59.752Z,18.97
2018-09-03T16:11:27.073Z,14.00
2018-09-03T16:13:54.383Z,15.97
2018-09-03T16:16:21.729Z,15.70
2018-09-03T16:18:49.156Z,14.67
2018-09-03T16:21:16.863Z,14.77
2018-09-03T16:23:44.237Z,14.80
2018-09-03T16:26:13.039Z,15.83
2018-09-03T16:28:40.675Z,14.80
2018-09-03T16:31:08.012Z,14.60
2018-09-03T16:33:35.397Z,15.03
2018-09-03T16:36:02.769Z,15.57
2018-09-03T16:38:30.048Z,14.10
2018-09-03T16:40:57.443Z,15.93
2018-09-03T16:43:24.774Z,16.43
2018-09-03T16:45:52.114Z,16.07
2018-09-03T16:48:19.445Z,15.13
2018-09-03T16:50:46.768Z,16.23
2018-09-03T16:53:14.068Z,15.97
2018-09-03T16:55:41.391Z,15.83
2018-09-03T16:58:08.747Z,15.17
2018-09-03T17:03:10.293Z,14.03
2018-09-03T17:05:37.689Z,17.20
2018-09-03T17:08:05.078Z,15.47
2018-09-03T17:10:32.370Z,15.07
2018-09-03T17:12:59.903Z,16.77
2018-09-03T17:15:27.207Z,14.77
2018-09-03T17:17:54.863Z,12.93
2018-09-03T17:20:22.257Z,15.20
2018-09-03T17:22:49.537Z,15.13
2018-09-03T17:25:16.993Z,14.97
2018-09-03T17:27:44.327Z,14.33
2018-09-03T17:30:11.822Z,13.73
2018-09-03T17:32:39.162Z,16.17
2018-09-03T17:35:06.590Z,16.40
2018-09-03T17:37:33.930Z,15.77
2018-09-03T17:40:01.249Z,15.63
2018-09-03T17:42:28.651Z,14.30
2018-09-03T17:44:56.030Z,15.53
2018-09-03T17:47:23.357Z,15.97
2018-09-03T17:49:50.916Z,14.43
2018-09-03T17:52:18.222Z,14.73
2018-09-03T17:54:45.587Z,14.00
2018-09-03T17:57:12.992Z,15.30
2018-09-03T17:59:40.550Z,15.60
2018-09-03T18:02:07.927Z,15.13
2018-09-03T18:04:35.373Z,17.27
2018-09-03T18:07:02.741Z,17.30
2018-09-03T18:09:30.042Z,16.07
2018-09-03T18:11:57.356Z,17.47
2018-09-03T18:14:24.789Z,17.13
2018-09-03T18:16:52.115Z,18.03
2018-09-03T18:19:19.548Z,17.83
2018-09-03T18:21:47.011Z,16.73
2018-09-03T18:24:14.398Z,19.00
2018-09-03T18:26:41.807Z,19.47
2018-09-03T18:29:09.169Z,17.53
2018-09-03T18:31:36.494Z,17.33
2018-09-03T18:34:03.866Z,21.50
2018-09-03T18:36:31.204Z,19.37
2018-09-03T18:38:58.555Z,17.23
2018-09-03T18:41:26.104Z,20.07
2018-09-03T18:43:53.425Z,20.33
2018-09-03T18:46:20.745Z,21.23
2018-09-03T18:48:51.083Z,21.10
2018-09-03T18:51:18.405Z,21.97
2018-09-03T18:53:45.700Z,24.17
2018-09-03T18:56:13.041Z,20.70
2018-09-03T18:58:40.310Z,20.37
2018-09-03T19:01:07.620Z,20.43
2018-09-03T19:03:34.915Z,24.17
2018-09-03T19:06:02.283Z,26.90
2018-09-03T19:08:29.533Z,23.87
2018-09-03T19:10:56.874Z,26.50
2018-09-03T19:13:24.166Z,24.87
2018-09-03T19:15:51.443Z,27.27
2018-09-03T19:18:18.731Z,24.93
2018-09-03T19:20:46.012Z,24.97
2018-09-03T19:23:13.360Z,27.50
2018-09-03T19:25:40.816Z,24.53
2018-09-03T19:28:08.139Z,21.93
2018-09-03T19:30:35.485Z,23.10
2018-09-03T19:33:02.815Z,21.00
2018-09-03T19:35:30.121Z,22.33
2018-09-03T19:37:58.526Z,21.97
2018-09-03T19:40:25.827Z,21.87
2018-09-03T19:42:53.139Z,19.53
2018-09-03T19:45:20.686Z,19.63
2018-09-03T19:47:48.014Z,20.10
2018-09-03T19:50:15.384Z,18.90
2018-09-03T19:52:42.712Z,19.40
2018-09-03T19:55:10.058Z,18.70
2018-09-03T19:57:37.411Z,19.10
2018-09-03T20:02:38.987Z,17.30
2018-09-03T20:05:06.387Z,18.83
2018-09-03T20:07:33.735Z,17.47
2018-09-03T20:10:01.070Z,18.97
2018-09-03T20:12:28.473Z,17.83
2018-09-03T20:14:55.862Z,20.00
2018-09-03T20:17:23.676Z,18.93
2018-09-03T20:19:51.623Z,21.70
2018-09-03T20:22:18.951Z,22.67
2018-09-03T20:24:46.366Z,22.27
2018-09-03T20:27:13.715Z,25.83
2018-09-03T20:29:41.558Z,25.70
2018-09-03T20:32:08.969Z,26.00
2018-09-03T20:34:36.311Z,27.70
2018-09-03T20:37:03.757Z,27.17
2018-09-03T20:39:31.144Z,27.77
2018-09-03T20:41:58.492Z,29.13
2018-09-03T20:44:25.851Z,29.10
2018-09-03T20:46:53.154Z,30.23
2018-09-03T20:49:20.749Z,30.83
2018-09-03T20:51:48.290Z,31.23
2018-09-03T20:54:15.559Z,29.73
2018-09-03T20:56:43.075Z,29.67
2018-09-03T20:59:10.370Z,30.27
2018-09-03T21:01:37.956Z,32.20
2018-09-03T21:04:05.420Z,32.57
2018-09-03T21:06:32.728Z,32.43
2018-09-03T21:09:00.044Z,31.67
2018-09-03T21:11:27.368Z,34.03
2018-09-03T21:13:54.684Z,35.20
2018-09-03T21:16:22.007Z,36.70
2018-09-03T21:18:49.684Z,35.97
2018-09-03T21:21:17.014Z,38.30
2018-09-03T21:23:45.212Z,38.23
2018-09-03T21:26:12.552Z,36.13
2018-09-03T21:28:39.939Z,35.70
2018-09-03T21:31:07.250Z,36.13
2018-09-03T21:33:34.594Z,34.50
2018-09-03T21:36:01.983Z,36.00
2018-09-03T21:38:30.568Z,34.80
2018-09-03T21:40:58.050Z,37.00
2018-09-03T21:43:25.350Z,33.10
2018-09-03T21:45:53.004Z,32.63
2018-09-03T21:48:20.320Z,36.00
2018-09-03T21:50:47.671Z,33.23
2018-09-03T21:53:15.218Z,34.77
2018-09-03T21:55:42.510Z,38.77
2018-09-03T21:58:09.829Z,37.17
2018-09-03T22:00:37.385Z,34.50
2018-09-03T22:03:05.864Z,35.00
2018-09-03T22:05:33.227Z,32.27
2018-09-03T22:08:00.566Z,30.70
2018-09-03T22:10:27.874Z,29.90
2018-09-03T22:12:55.175Z,32.83
2018-09-03T22:15:22.486Z,29.90
2018-09-03T22:17:49.893Z,33.20
2018-09-03T22:20:17.202Z,30.83
2018-09-03T22:22:44.605Z,31.47
2018-09-03T22:25:11.940Z,29.60
2018-09-03T22:27:39.299Z,32.03
2018-09-03T22:30:06.892Z,29.83
2018-09-03T22:32:34.176Z,29.23
2018-09-03T22:35:01.479Z,28.10
2018-09-03T22:37:28.774Z,33.07
2018-09-03T22:39:56.097Z,32.77
2018-09-03T22:42:26.048Z,31.63
2018-09-03T22:44:54.460Z,32.87
2018-09-03T22:47:21.952Z,32.33
2018-09-03T22:49:49.289Z,30.67
2018-09-03T22:52:16.598Z,33.27
2018-09-03T22:54:43.902Z,28.07
2018-09-03T22:57:11.190Z,28.23
2018-09-03T22:59:38.695Z,29.20
2018-09-03T23:02:06.019Z,28.37
2018-09-03T23:04:33.326Z,26.27
2018-09-03T23:07:00.637Z,28.27
2018-09-03T23:09:27.949Z,27.47
2018-09-03T23:11:55.255Z,29.60
2018-09-03T23:14:22.642Z,28.40
2018-09-03T23:16:50.275Z,26.20
2018-09-03T23:19:17.567Z,28.90
2018-09-03T23:21:44.851Z,25.43
2018-09-03T23:24:12.799Z,25.80
2018-09-03T23:26:40.088Z,27.03
2018-09-03T23:29:07.382Z,26.90
2018-09-03T23:31:34.686Z,27.43
2018-09-03T23:34:01.991Z,26.33
2018-09-03T23:36:29.351Z,27.17
2018-09-03T23:38:56.703Z,27.70
2018-09-03T23:41:24.047Z,31.70
2018-09-03T23:43:51.347Z,26.47
2018-09-03T23:46:18.684Z,26.60
2018-09-03T23:48:46.006Z,24.37
2018-09-03T23:51:13.304Z,25.20
2018-09-03T23:53:40.707Z,26.23
2018-09-03T23:56:08.068Z,25.60
2018-09-03T23:58:35.435Z,28.47
